• Join FlightAware (Why Join?)
  • Login
  • US Flag 
07:16AM EDT


 

Airport Tracker/Info


-or-


 

Live Flight TrackerFlight Track Log ✈ SWA902 ✈ 09-Apr-2014 ✈ KDTW - KLAS

Flight Track Log - Related Links

Times and Time Zones

All times are in EDT time to prevent confusion due to time zone crossing. See the SWA902 flight status page for this flight to view local times or setup timezone preferences in your user account.

Time Position Orientation Groundspeed Altitude Reporting Facility
EDT Latitude Longitude Course Direction KTS MPH feet Rate Location/Type
08:13AM 42.2303 -83.3508 275° West 158 182 1,500  Level Cleveland Center
08:14AM 42.2692 -83.3367 15° North 195 224 2,700 1,380 Climbing Cleveland Center
08:15AM 42.2969 -83.3253 17° North 207 238 3,600 2,280 Climbing Cleveland Center
08:15AM 42.3211 -83.3156 17° North 226 260 4,800 2,700 Climbing Cleveland Center
08:16AM 42.3661 -83.2950 19° North 225 259 6,400 2,220 Climbing Cleveland Center
08:16AM 42.3861 -83.2881 14° North 260 299 7,100 2,700 Climbing Cleveland Center
08:17AM 42.4217 -83.3303 319° Northwest 255 293 9,200 2,100 Climbing Cleveland Center
08:18AM 42.4194 -83.4378 268° West 281 323 11,000 1,920 Climbing Cleveland Center
08:19AM 42.4184 -84.2086 275° West  Level FlightAware Approximate
08:19AM 42.4214 -83.5683 271° West 342 394 13,200  Level Cleveland Center
08:20AM 42.4225 -83.6953 271° West 351 404 15,700 2,580 Climbing Cleveland Center
08:21AM 42.4242 -83.8586 271° West 365 420 18,500 2,340 Climbing Cleveland Center
08:22AM 42.4256 -84.0006 271° West 377 434 20,500 1,740 Climbing Cleveland Center
08:23AM 42.4275 -84.1481 271° West 389 448 22,200 1,620 Climbing Cleveland Center
08:24AM 42.4303 -84.3011 271° West 405 466 23,900 1,560 Climbing Cleveland Center
08:25AM 42.4347 -84.4558 272° West 410 472 25,500 1,440 Climbing Cleveland Center
08:26AM 42.4392 -84.6461 272° West 420 483 27,000 1,260 Climbing Cleveland Center
08:27AM 42.4425 -84.7933 272° West 432 497 28,200 1,320 Climbing Cleveland Center
08:28AM 42.4464 -84.9233 272° West 436 502 29,500 1,440 Climbing Chicago Center
08:29AM 42.4489 -85.0828 271° West 432 497 30,900 1,320 Climbing Chicago Center
08:30AM 42.4536 -85.2764 272° West 432 497 32,300 1,200 Climbing Chicago Center
08:31AM 42.4569 -85.4350 272° West 431 496 33,400 960 Climbing Chicago Center
08:33AM 42.4622 -85.7528 271° West 425 489 35,400 780 Climbing Chicago Center
08:34AM 42.4633 -85.9106 271° West 425 489 36,000 240 Climbing Chicago Center
08:35AM 42.4661 -86.1011 271° West 425 489 36,000  Level Chicago Center
08:36AM 42.4475 -86.2608 261° West 438 504 36,000  Level Chicago Center
08:37AM 42.4281 -86.4172 260° West 433 498 36,000  Level Chicago Center
08:38AM 42.4058 -86.5756 259° West 432 497 36,000  Level Chicago Center
08:39AM 42.3861 -86.7439 261° West 429 494 36,000  Level Chicago Center
08:41AM 42.3431 -87.0592 256° West 429 494 36,000  Level Chicago Center
08:42AM 42.3225 -87.2175 260° West 430 495 36,000  Level Chicago Center
08:43AM 42.2972 -87.4053 260° West 428 493 36,000  Level Chicago Center
08:44AM 42.2750 -87.5619 259° West 428 493 36,000  Level Chicago Center
08:45AM 42.2533 -87.7175 259° West 427 491 36,000  Level Chicago Center
08:46AM 42.2319 -87.8742 260° West 427 491 36,000  Level Chicago Center
08:48AM 42.2081 -88.0292 258° West 426 490 36,000  Level Chicago Center
08:49AM 42.1747 -88.2128 256° West 426 490 36,000  Level Chicago Center
08:50AM 42.1472 -88.3672 257° West 426 490 36,000  Level Chicago Center
08:51AM 42.1206 -88.5225 257° West 426 490 36,000  Level Chicago Center
08:52AM 42.0925 -88.6778 256° West 426 490 36,000  Level Chicago Center
08:53AM 42.0644 -88.8333 256° West 427 491 36,000  Level Chicago Center
08:54AM 42.0361 -88.9869 256° West 427 491 36,000  Level Chicago Center
08:55AM 42.0017 -89.1714 256° West 427 491 36,000  Level Chicago Center
08:56AM 41.9722 -89.3283 256° West 434 499 36,000  Level Chicago Center
08:57AM 41.9433 -89.4833 256° West 432 497 36,000  Level Chicago Center
08:58AM 41.9153 -89.6358 256° West 425 489 36,000  Level Chicago Center
08:59AM 41.8853 -89.7908 255° West 426 490 36,000  Level Chicago Center
09:00AM 41.8528 -89.9661 256° West 431 496 36,000  Level Chicago Center
09:01AM 41.8214 -90.1214 255° West 433 498 36,000  Level Chicago Center
09:02AM 41.7922 -90.2717 255° West 432 497 36,000  Level Chicago Center
09:03AM 41.7608 -90.4311 255° West 442 509 36,000  Level Chicago Center
09:04AM 41.7239 -90.6150 255° West 434 499 36,000  Level Chicago Center
09:05AM 41.6925 -90.7711 255° West 433 498 36,000  Level Chicago Center
09:06AM 41.6611 -90.9231 255° West 430 495 36,000  Level Chicago Center
09:07AM 41.6311 -91.0744 255° West 425 489 36,000  Level Chicago Center
09:08AM 41.5994 -91.2264 254° West 425 489 36,000  Level Chicago Center
09:09AM 41.5681 -91.3775 255° West 425 489 36,000  Level Chicago Center
09:11AM 41.5094 -91.7081 253° West 414 476 36,000  Level Chicago Center
09:12AM 41.4958 -91.8597 263° West 410 472 36,000  Level Chicago Center
09:13AM 41.4814 -92.0111 263° West 411 473 36,000  Level Chicago Center
09:14AM 41.4667 -92.1614 263° West 411 473 36,000  Level Chicago Center
09:15AM 41.4519 -92.3144 263° West 413 475 36,000  Level Chicago Center
09:16AM 41.4333 -92.4942 262° West 411 473 36,000  Level Chicago Center
09:17AM 41.4178 -92.6467 262° West 414 476 36,000  Level Minneapolis Center
09:18AM 41.4019 -92.7983 262° West 414 476 36,000  Level Minneapolis Center
09:19AM 41.3872 -92.9475 263° West 414 476 36,000  Level Minneapolis Center
09:21AM 41.3714 -93.0967 262° West 414 476 36,000  Level Minneapolis Center
09:22AM 41.3553 -93.2433 262° West 413 475 36,000  Level Minneapolis Center
09:23AM 41.3358 -93.4189 262° West 408 470 36,000  Level Minneapolis Center
09:24AM 41.3197 -93.5678 262° West 408 470 36,000  Level Minneapolis Center
09:26AM 41.2869 -93.8692 262° West 412 474 36,000  Level Minneapolis Center
09:27AM 41.2678 -94.0219 261° West 417 480 36,000  Level Minneapolis Center
09:29AM 41.2308 -94.3481 262° West 417 480 36,000  Level Minneapolis Center
09:30AM 41.2136 -94.4997 261° West 417 480 36,000  Level Minneapolis Center
09:31AM 41.1956 -94.6514 261° West 417 480 36,000  Level Minneapolis Center
09:32AM 41.1767 -94.8033 261° West 417 480 36,000  Level Minneapolis Center
09:33AM 41.1592 -94.9550 261° West 417 480 36,000  Level Minneapolis Center
09:34AM 41.1397 -95.1072 260° West 417 480 36,000  Level Minneapolis Center
09:35AM 41.1203 -95.2603 260° West 417 480 36,000  Level Minneapolis Center
09:36AM 41.1006 -95.4153 260° West 420 483 36,000  Level Minneapolis Center
09:37AM 41.0761 -95.6000 260° West 421 484 36,000  Level Minneapolis Center
09:38AM 41.0567 -95.7525 260° West 420 483 36,000  Level Minneapolis Center
09:40AM 41.0164 -96.0569 261° West 419 482 36,000  Level Minneapolis Center
09:41AM 40.9961 -96.2086 260° West 418 481 36,000  Level Minneapolis Center
09:42AM 40.9753 -96.3594 260° West 418 481 36,000  Level Minneapolis Center
09:43AM 40.9547 -96.5106 260° West 417 480 36,000  Level Minneapolis Center
09:45AM 40.9067 -96.8144 257° West 420 483 36,000  Level Minneapolis Center
09:46AM 40.8619 -96.9603 248° West 423 487 36,000  Level Minneapolis Center
09:47AM 40.8189 -97.1061 249° West 423 487 36,000  Level Minneapolis Center
09:48AM 40.7772 -97.2511 249° West 424 488 36,000  Level Minneapolis Center
09:49AM 40.7278 -97.4244 249° West 423 487 36,000  Level Minneapolis Center
09:50AM 40.6861 -97.5672 249° West 423 487 36,000  Level Minneapolis Center
09:51AM 40.6444 -97.7100 249° West 423 487 36,000  Level Minneapolis Center
09:52AM 40.6025 -97.8517 249° West 422 486 36,000  Level Minneapolis Center
09:54AM 40.5131 -98.1636 249° West 416 479 36,000  Level Denver Center
09:55AM 40.4778 -98.2764 248° West 420 483 36,000  Level Minneapolis Center
09:58AM 40.3803 -98.5933 248° West 417 480 36,000  Level Denver Center
09:59AM 40.3406 -98.7289 249° West 417 480 36,000  Level Denver Center
10:01AM 40.2519 -99.0197 248° West 416 479 36,000  Level Denver Center
10:02AM 40.2100 -99.1528 248° West 414 476 36,000  Level Denver Center
10:04AM 40.1208 -99.4392 248° West 411 473 36,000  Level Denver Center
10:05AM 40.0731 -99.5917 248° West 409 471 36,000  Level Denver Center
10:07AM 39.9878 -99.8608 248° West 411 473 36,000  Level Minneapolis Center
10:08AM 39.9417 -100.0067 248° West 409 471 36,000  Level Denver Center
10:09AM 39.8997 -100.1397 248° West 409 471 36,000  Level Denver Center
10:10AM 39.8506 -100.2928 247° West 409 471 36,000  Level Denver Center
10:11AM 39.8078 -100.4239 247° West 409 471 36,000  Level Denver Center
10:12AM 39.7650 -100.5564 247° West 411 473 36,000  Level Denver Center
10:13AM 39.7158 -100.7111 248° West 411 473 36,000  Level Denver Center
10:14AM 39.6714 -100.8436 246° West 414 476 36,000  Level Denver Center
10:15AM 39.6200 -100.9994 247° West 416 479 36,000  Level Denver Center
10:16AM 39.5761 -101.1339 247° West 419 482 36,000  Level Denver Center
10:17AM 39.5236 -101.2883 246° West 420 483 36,000  Level Denver Center
10:18AM 39.4794 -101.4206 247° West 420 483 36,000  Level Denver Center
10:19AM 39.4350 -101.5519 246° West 419 482 36,000  Level Denver Center
10:20AM 39.3836 -101.7050 247° West 418 481 36,000  Level Denver Center
10:21AM 39.3328 -101.8331 243° Southwest 417 480 36,000  Level Denver Center
10:29AM 38.9411 -102.8392 243° Southwest 416 479 36,000  Level Denver Center
10:30AM 38.8894 -102.9694 243° Southwest 414 476 36,000  Level Denver Center
10:32AM 38.7856 -103.2314 243° Southwest 411 473 36,000  Level Denver Center
10:34AM 38.6794 -103.4931 258° West 413 475 36,000  Level Denver Center
10:35AM 38.6512 -103.5361 243° Southwest  Level FlightAware Approximate
10:35AM 38.6269 -103.6236 243° Southwest 413 475 36,000  Level Denver Center
10:36AM 38.6010 -103.6630 243° Southwest  Level FlightAware Approximate
10:36AM 38.5619 -103.7803 242° Southwest 413 475 36,000  Level Denver Center
10:37AM 38.5092 -103.9094 242° Southwest 413 475 36,000  Level Denver Center
10:38AM 38.4553 -104.0411 242° Southwest 413 475 36,000  Level Denver Center
10:39AM 38.4017 -104.1731 243° Southwest 414 476 36,000  Level Denver Center
10:40AM 38.3478 -104.3014 242° Southwest 414 476 36,000  Level Denver Center
10:41AM 38.3014 -104.4356 246° West 418 481 36,000  Level Denver Center
10:42AM 38.3192 -104.6061 278° West 409 471 36,000  Level Denver Center
10:43AM 38.3375 -104.7503 279° West 409 471 36,000  Level Denver Center
10:44AM 38.3572 -104.8936 280° West 409 471 36,000  Level Denver Center
10:45AM 38.3761 -105.0353 280° West 409 471 36,000  Level Denver Center
10:46AM 38.3950 -105.1731 280° West 401 461 36,000  Level Denver Center
10:47AM 38.4128 -105.3142 279° West 401 461 36,000  Level Denver Center
10:48AM 38.4336 -105.4792 279° West 398 458 36,000  Level Denver Center
10:49AM 38.4531 -105.6181 280° West 398 458 36,000  Level Denver Center
10:51AM 38.4881 -105.9006 282° West 397 457 36,000  Level Denver Center
10:52AM 38.4994 -106.0417 276° West 398 458 36,000  Level Denver Center
10:54AM 38.4856 -106.3306 267° West 405 466 36,000  Level Denver Center
10:55AM 38.4789 -106.4767 267° West 406 467 36,000  Level Denver Center
11:00AM 38.4364 -107.0869 246° West 412 474 36,000  Level Denver Center
11:03AM 38.2986 -107.5008 246° West 412 474 36,000  Level Denver Center
11:04AM 38.2622 -107.5733 246° West  Level FlightAware Approximate
11:04AM 38.2497 -107.6467 247° West 408 470 36,000  Level Denver Center
11:05AM 38.2168 -107.7024 246° West  Level FlightAware Approximate
11:06AM 38.1639 -107.9022 247° West 408 470 36,000  Level Denver Center
11:07AM 38.1139 -108.0494 247° West 408 470 36,000  Level Denver Center
11:08AM 38.0714 -108.1736 247° West 405 466 36,000  Level Denver Center
11:09AM 38.0214 -108.3169 246° West 402 463 36,000  Level Denver Center
11:11AM 37.9731 -108.5908 257° West 389 448 36,000  Level Denver Center
11:12AM 38.0211 -108.7039 298° West 384 442 36,000  Level Denver Center
11:13AM 38.1264 -108.7808 330° Northwest 389 448 36,000  Level Denver Center
11:17AM 38.0775 -109.3031 246° West 394 453 36,000  Level Denver Center
11:19AM 37.9994 -109.5250 246° West 398 458 36,000  Level Los Angeles Center
11:20AM 37.9375 -109.6892 244° Southwest 401 461 36,000  Level Denver Center
11:21AM 37.8850 -109.8328 245° Southwest 401 461 36,000 -240 Level Denver Center
11:22AM 37.7924 -109.8896 246° West  Level FlightAware Approximate
11:23AM 37.7474 -110.0176 246° West  Level FlightAware Approximate
11:23AM 37.8106 -110.0381 245° Southwest 400 460 35,500  Level Los Angeles Center
11:24AM 37.7636 -110.1656 245° Southwest 400 460 34,500 -1,080 Descending Los Angeles Center
11:25AM 37.7019 -110.3144 242° Southwest 400 460 33,300 -1,140 Descending Los Angeles Center
11:26AM 37.6578 -110.4358 245° Southwest 389 448 32,200 -660 Descending Los Angeles Center
11:27AM 37.6133 -110.5575 245° Southwest 384 442 32,000 -120 Descending Los Angeles Center
11:28AM 37.5650 -110.6836 244° Southwest 392 451 32,000  Level Los Angeles Center
11:30AM 37.5000 -110.8592 245° Southwest 396 456 32,000  Level Denver Center
11:32AM 37.3939 -111.1383 245° Southwest 401 461 32,000  Level Denver Center
11:33AM 37.3353 -111.2903 244° Southwest 401 461 32,000  Level Denver Center
11:34AM 37.2867 -111.4164 244° Southwest 402 463 32,000  Level Denver Center
11:35AM 37.2392 -111.5431 245° Southwest 403 464 32,000  Level Denver Center
11:38AM 37.0914 -111.9203 244° Southwest 402 463 32,000 -300 Level Denver Center
11:39AM 37.0325 -112.0700 244° Southwest 402 463 30,800 -1,080 Descending Denver Center
11:40AM 36.9828 -112.1950 244° Southwest 402 463 29,800 -1,020 Descending Denver Center
11:41AM 36.9422 -112.3214 248° West 394 453 28,800 -960 Descending Denver Center
11:43AM 36.9056 -112.5033 256° West 385 443 27,400 -1,080 Descending Los Angeles Center
11:44AM 36.8756 -112.6539 256° West 376 433 26,200 -1,140 Descending Los Angeles Center
11:45AM 36.8489 -112.7794 255° West 375 432 25,100 -1,020 Descending Los Angeles Center
11:46AM 36.8236 -112.9031 256° West 370 426 24,100 -1,020 Descending Los Angeles Center
11:47AM 36.7986 -113.0258 256° West 368 423 23,100 -1,020 Descending Los Angeles Center
11:49AM 36.7350 -113.2683 252° West 368 423 21,100 -1,080 Descending Los Angeles Center
11:50AM 36.6950 -113.4075 250° West 360 414 19,900 -1,080 Descending Los Angeles Center
11:52AM 36.6328 -113.6367 243° Southwest 352 405 17,900 -960 Descending Los Angeles Center
11:53AM 36.6008 -113.7472 250° West 345 397 17,000 -960 Descending Los Angeles Center
11:54AM 36.5703 -113.8581 251° West 343 395 16,000 -1,020 Descending Los Angeles Center
11:55AM 36.5406 -113.9694 252° West 342 394 15,000 -1,020 Descending Los Angeles Center
11:57AM 36.4680 -114.1104 237° Southwest  Level FlightAware Approximate
11:57AM 36.4775 -114.1911 237° Southwest 328 377 12,900  Level Los Angeles Center
11:58AM 36.4522 -114.2861 252° West 322 371 12,000 -900 Descending Los Angeles Center
11:58AM 36.4478 -114.2942 236° Southwest 321 369 12,000  Level Los Angeles Center
11:59AM 36.4233 -114.3789 250° West 313 360 12,000  Level Los Angeles Center
11:59AM 36.4131 -114.4150 251° West 308 354 12,000 -300 Level Los Angeles Center
12:00PM 36.3658 -114.4869 231° Southwest 292 336 11,600 -660 Descending Los Angeles Center
12:01PM 36.3197 -114.4972 190° South 285 328 11,000 -1,020 Descending Los Angeles Center
12:01PM 36.2867 -114.5019 187° South 291 335 10,600 -840 Descending Los Angeles Center
12:03PM 36.2108 -114.5172 189° South 279 321 9,800 -840 Descending Los Angeles Center
12:03PM 36.1836 -114.5461 221° Southwest 231 266 9,300 -780 Descending Los Angeles Center
12:04PM 36.1667 -114.5714 230° Southwest 244 281 9,000 -1,020 Descending Los Angeles Center
12:04PM 36.1422 -114.6133 234° Southwest 217 250 8,300 -960 Descending Los Angeles Center
12:05PM 36.1306 -114.6314 231° Southwest 223 257 8,000 -300 Descending Los Angeles Center
12:05PM 36.1058 -114.6736 234° Southwest 223 257 8,000  Level Los Angeles Center
12:06PM 36.0850 -114.7067 232° Southwest 223 257 8,000 -360 Level Los Angeles Center
12:07PM 36.0725 -114.7803 258° West 221 254 7,500 -660 Descending Los Angeles Center
12:07PM 36.0725 -114.8156 270° West 214 246 7,100 -1,080 Descending Los Angeles Center
12:08PM 36.0728 -114.8953 270° West 215 247 6,000 -1,200 Descending Los Angeles Center
12:09PM 36.0744 -114.9336 273° West 219 252 5,200 -1,320 Descending Los Angeles Center
12:09PM 36.0728 -114.9644 266° West 198 228 4,700 -1,080 Descending Los Angeles Center
12:10PM 36.0742 -115.0008 273° West 184 212 4,100 -1,020 Descending Los Angeles Center
12:10PM 36.0725 -115.0231 265° West 173 199 3,700 -900 Descending Los Angeles Center
12:11PM 36.0739 -115.0589 273° West 174 200 3,200 -840 Descending Los Angeles Center
12:12PM 36.0733 -115.1161 269° West 158 182 2,300 -900 Descending Los Angeles Center
12:14PM 36.0667 -115.1500 219° Southwest  Level FlightAware Approximate